createdAt,value
2018-07-07T00:00:06.201Z,100.10
2018-07-07T00:01:06.452Z,94.50
2018-07-07T00:02:06.290Z,91.70
2018-07-07T00:03:06.353Z,86.70
2018-07-07T00:04:06.376Z,92.50
2018-07-07T00:05:06.423Z,87.10
2018-07-07T00:06:06.486Z,86.90
2018-07-07T00:07:06.491Z,84.80
2018-07-07T00:08:06.559Z,84.70
2018-07-07T00:09:06.595Z,86.10
2018-07-07T00:10:06.635Z,92.10
2018-07-07T00:11:06.686Z,103.80
2018-07-07T00:12:06.934Z,108.30
2018-07-07T00:13:06.779Z,103.00
2018-07-07T00:14:06.831Z,102.10
2018-07-07T00:15:06.889Z,108.70
2018-07-07T00:16:06.915Z,107.10
2018-07-07T00:17:06.958Z,111.80
2018-07-07T00:18:07.013Z,110.60
2018-07-07T00:19:07.088Z,110.00
2018-07-07T00:20:07.104Z,110.80
2018-07-07T00:21:07.141Z,113.90
2018-07-07T00:22:07.182Z,112.40
2018-07-07T00:23:07.238Z,115.00
2018-07-07T00:24:07.277Z,112.90
2018-07-07T00:25:07.311Z,109.40
2018-07-07T00:26:07.370Z,110.60
2018-07-07T00:27:07.444Z,111.40
2018-07-07T00:28:07.479Z,98.20
2018-07-07T00:29:07.520Z,140.90
2018-07-07T00:30:07.575Z,123.40
2018-07-07T00:31:07.611Z,127.60
2018-07-07T00:32:07.662Z,129.40
2018-07-07T00:33:07.695Z,139.70
2018-07-07T00:34:07.760Z,164.10
2018-07-07T00:35:07.776Z,173.80
2018-07-07T00:36:07.825Z,174.60
2018-07-07T00:37:07.891Z,180.00
2018-07-07T00:38:07.907Z,198.70
2018-07-07T00:39:07.961Z,192.70
2018-07-07T00:40:07.998Z,187.50
2018-07-07T00:41:08.041Z,174.70
2018-07-07T00:42:08.090Z,152.60
2018-07-07T00:43:08.132Z,152.90
2018-07-07T00:44:08.189Z,157.40
2018-07-07T00:45:08.229Z,137.50
2018-07-07T00:46:08.276Z,130.10
2018-07-07T00:47:08.328Z,129.40
2018-07-07T00:48:08.378Z,123.80
2018-07-07T00:49:08.402Z,114.20
2018-07-07T00:50:08.475Z,124.00
2018-07-07T00:51:08.521Z,132.40
2018-07-07T00:52:08.547Z,128.80
2018-07-07T00:53:08.589Z,136.70
2018-07-07T00:54:08.631Z,132.00
2018-07-07T00:55:08.679Z,130.50
2018-07-07T00:56:08.731Z,127.90
2018-07-07T00:57:08.769Z,122.30
2018-07-07T00:58:08.816Z,123.00
2018-07-07T00:59:08.847Z,120.00
2018-07-07T01:00:08.883Z,120.80
2018-07-07T01:01:09.142Z,122.20
2018-07-07T01:02:09.019Z,121.10
2018-07-07T01:03:09.032Z,124.10
2018-07-07T01:04:09.106Z,123.50
2018-07-07T01:05:09.130Z,124.00
2018-07-07T01:06:09.175Z,129.20
2018-07-07T01:07:09.227Z,139.20
2018-07-07T01:08:09.254Z,141.20
2018-07-07T01:09:09.305Z,136.40
2018-07-07T01:10:09.366Z,138.10
2018-07-07T01:11:09.402Z,129.00
2018-07-07T01:12:09.452Z,125.10
2018-07-07T01:13:09.489Z,136.10
2018-07-07T01:14:09.532Z,134.00
2018-07-07T01:15:09.571Z,137.30
2018-07-07T01:16:09.596Z,135.40
2018-07-07T01:17:09.664Z,139.80
2018-07-07T01:18:09.704Z,138.60
2018-07-07T01:19:09.959Z,127.50
2018-07-07T01:20:09.799Z,138.40
2018-07-07T01:21:09.847Z,140.00
2018-07-07T01:22:09.881Z,141.20
2018-07-07T01:23:09.924Z,132.00
2018-07-07T01:24:09.989Z,149.90
2018-07-07T01:25:10.016Z,151.10
2018-07-07T01:26:10.041Z,153.90
2018-07-07T01:27:10.127Z,218.70
2018-07-07T01:28:10.165Z,144.30
2018-07-07T01:29:10.218Z,137.50
2018-07-07T01:30:10.232Z,135.80
2018-07-07T01:31:10.499Z,178.90
2018-07-07T01:32:10.335Z,171.80
2018-07-07T01:33:10.396Z,167.10
2018-07-07T01:34:10.429Z,178.20
2018-07-07T01:35:10.480Z,173.70
2018-07-07T01:36:10.513Z,193.70
2018-07-07T01:37:10.575Z,193.50
2018-07-07T01:38:10.617Z,190.50
2018-07-07T01:39:10.658Z,233.40
2018-07-07T01:40:10.670Z,234.40
2018-07-07T01:41:10.732Z,218.90
2018-07-07T01:42:10.783Z,216.50
2018-07-07T01:43:10.823Z,239.10
2018-07-07T01:44:10.861Z,220.00
2018-07-07T01:45:10.911Z,201.40
2018-07-07T01:46:10.947Z,219.20
2018-07-07T01:47:10.992Z,225.50
2018-07-07T01:48:11.044Z,232.00
2018-07-07T01:49:11.083Z,205.70
2018-07-07T01:50:11.122Z,214.10
2018-07-07T01:51:11.192Z,210.90
2018-07-07T01:52:11.206Z,219.50
2018-07-07T01:53:11.274Z,250.40
2018-07-07T01:54:11.474Z,260.10
2018-07-07T01:55:11.358Z,215.30
2018-07-07T01:56:11.393Z,237.80
2018-07-07T01:57:11.422Z,223.10
2018-07-07T01:58:11.483Z,227.60
2018-07-07T01:59:11.521Z,218.10
2018-07-07T02:00:11.577Z,253.80
2018-07-07T02:01:11.626Z,225.10
2018-07-07T02:02:11.659Z,212.50
2018-07-07T02:03:11.685Z,220.80
2018-07-07T02:04:11.744Z,230.20
2018-07-07T02:05:11.807Z,234.60
2018-07-07T02:06:11.851Z,231.60
2018-07-07T02:07:11.863Z,226.10
2018-07-07T02:08:11.940Z,224.50
2018-07-07T02:09:11.964Z,210.40
2018-07-07T02:10:12.011Z,201.70
2018-07-07T02:11:12.030Z,216.10
2018-07-07T02:12:12.083Z,210.60
2018-07-07T02:13:12.116Z,205.90
2018-07-07T02:14:12.189Z,206.40
2018-07-07T02:15:12.240Z,193.90
2018-07-07T02:16:12.247Z,186.00
2018-07-07T02:17:12.301Z,187.20
2018-07-07T02:18:12.329Z,172.50
2018-07-07T02:19:12.382Z,219.60
2018-07-07T02:20:12.440Z,219.00
2018-07-07T02:21:12.484Z,205.00
2018-07-07T02:22:12.520Z,211.60
2018-07-07T02:23:12.581Z,225.50
2018-07-07T02:24:12.631Z,260.10
2018-07-07T02:25:12.646Z,264.40
2018-07-07T02:26:12.710Z,221.70
2018-07-07T02:27:12.743Z,248.00
2018-07-07T02:28:12.783Z,242.00
2018-07-07T02:29:12.838Z,260.50
2018-07-07T02:30:12.881Z,256.20
2018-07-07T02:31:12.930Z,252.70
2018-07-07T02:32:12.974Z,217.50
2018-07-07T02:33:12.992Z,262.50
2018-07-07T02:34:13.024Z,263.40
2018-07-07T02:35:13.095Z,248.30
2018-07-07T02:36:13.116Z,258.50
2018-07-07T02:37:13.160Z,267.40
2018-07-07T02:38:13.215Z,252.00
2018-07-07T02:39:13.241Z,276.70
2018-07-07T02:40:13.302Z,305.00
2018-07-07T02:41:13.361Z,250.30
2018-07-07T02:42:13.384Z,281.60
2018-07-07T02:43:13.448Z,322.90
2018-07-07T02:44:13.465Z,293.30
2018-07-07T02:45:13.530Z,279.10
2018-07-07T02:46:13.645Z,324.80
2018-07-07T02:47:13.595Z,295.40
2018-07-07T02:48:13.655Z,311.70
2018-07-07T02:49:13.708Z,300.70
2018-07-07T02:50:13.952Z,327.40
2018-07-07T02:51:13.802Z,338.80
2018-07-07T02:52:13.800Z,335.20
2018-07-07T02:53:13.870Z,348.40
2018-07-07T02:54:13.924Z,340.50
2018-07-07T02:55:13.960Z,348.40
2018-07-07T02:56:14.007Z,335.30
2018-07-07T02:57:14.055Z,344.30
2018-07-07T02:58:14.088Z,304.00
2018-07-07T02:59:14.142Z,341.90
2018-07-07T03:00:14.175Z,362.80
2018-07-07T03:01:14.235Z,343.70
2018-07-07T03:02:14.461Z,324.40
2018-07-07T03:03:14.385Z,364.30
2018-07-07T03:04:14.355Z,338.80
2018-07-07T03:05:14.407Z,330.10
2018-07-07T03:06:14.455Z,326.10
2018-07-07T03:07:14.473Z,310.80
2018-07-07T03:08:14.539Z,338.60
2018-07-07T03:09:14.553Z,335.90
2018-07-07T03:10:14.628Z,336.00
2018-07-07T03:11:14.644Z,323.90
2018-07-07T03:12:14.697Z,340.00
2018-07-07T03:13:14.742Z,334.40
2018-07-07T03:14:14.985Z,357.40
2018-07-07T03:15:14.841Z,339.80
2018-07-07T03:16:14.872Z,344.20
2018-07-07T03:17:14.914Z,342.00
2018-07-07T03:18:14.952Z,348.40
2018-07-07T03:19:14.985Z,337.70
2018-07-07T03:20:15.053Z,311.90
2018-07-07T03:21:15.115Z,346.00
2018-07-07T03:22:15.121Z,345.10
2018-07-07T03:23:15.167Z,334.90
2018-07-07T03:24:15.203Z,343.90
2018-07-07T03:25:15.469Z,349.60
2018-07-07T03:26:15.293Z,358.40
2018-07-07T03:27:15.341Z,329.60
2018-07-07T03:28:15.396Z,317.40
2018-07-07T03:29:15.426Z,331.90
2018-07-07T03:30:15.472Z,345.20
2018-07-07T03:31:15.507Z,342.70
2018-07-07T03:32:15.567Z,351.80
2018-07-07T03:33:15.576Z,346.80
2018-07-07T03:34:15.624Z,336.70
2018-07-07T03:35:15.686Z,347.90
2018-07-07T03:36:15.717Z,334.20
2018-07-07T03:37:15.769Z,354.90
2018-07-07T03:38:15.797Z,353.60
2018-07-07T03:39:15.871Z,360.50
2018-07-07T03:40:15.878Z,361.30
2018-07-07T03:41:15.950Z,375.10
2018-07-07T03:42:16.021Z,348.40
2018-07-07T03:43:16.033Z,362.80
2018-07-07T03:44:16.071Z,386.00
2018-07-07T03:45:16.120Z,367.40
2018-07-07T03:46:16.168Z,340.40
2018-07-07T03:47:16.379Z,336.70
2018-07-07T03:48:16.262Z,350.70
2018-07-07T03:49:16.331Z,353.40
2018-07-07T03:50:16.349Z,364.90
2018-07-07T03:51:16.377Z,350.20
2018-07-07T03:52:16.412Z,369.80
2018-07-07T03:53:16.483Z,381.80
2018-07-07T03:54:16.485Z,385.40
2018-07-07T03:55:16.550Z,400.20
2018-07-07T03:56:16.586Z,387.50
2018-07-07T03:57:16.624Z,380.10
2018-07-07T03:58:16.678Z,413.30
2018-07-07T03:59:16.720Z,381.80
2018-07-07T04:00:16.762Z,343.60
2018-07-07T04:01:16.814Z,330.40
2018-07-07T04:02:16.869Z,340.40
2018-07-07T04:03:17.084Z,398.90
2018-07-07T04:04:16.940Z,369.80
2018-07-07T04:05:16.991Z,370.80
2018-07-07T04:06:17.038Z,382.50
2018-07-07T04:07:17.099Z,386.70
2018-07-07T04:08:17.105Z,434.00
2018-07-07T04:09:17.137Z,424.50
2018-07-07T04:10:17.184Z,398.40
2018-07-07T04:11:17.240Z,367.50
2018-07-07T04:12:17.290Z,350.50
2018-07-07T04:13:17.331Z,391.50
2018-07-07T04:14:17.354Z,360.80
2018-07-07T04:15:17.614Z,381.80
2018-07-07T04:16:17.448Z,374.70
2018-07-07T04:17:17.502Z,373.90
2018-07-07T04:18:17.529Z,349.50
2018-07-07T04:19:17.579Z,332.00
2018-07-07T04:20:17.615Z,309.00
2018-07-07T04:21:17.651Z,341.50
2018-07-07T04:22:17.743Z,367.20
2018-07-07T04:23:17.762Z,375.50
2018-07-07T04:24:17.791Z,384.10
2018-07-07T04:25:17.807Z,324.30
2018-07-07T04:26:17.879Z,376.70
2018-07-07T04:27:17.923Z,373.30
2018-07-07T04:28:17.958Z,396.40
2018-07-07T04:29:17.992Z,402.20
2018-07-07T04:30:18.046Z,369.20
2018-07-07T04:31:18.304Z,375.70
2018-07-07T04:32:18.114Z,406.40
2018-07-07T04:33:18.184Z,426.00
2018-07-07T04:34:18.228Z,431.00
2018-07-07T04:35:18.260Z,445.90
2018-07-07T04:36:18.316Z,395.10
2018-07-07T04:37:18.359Z,425.40
2018-07-07T04:38:18.390Z,418.70
2018-07-07T04:39:18.448Z,442.60
2018-07-07T04:40:18.477Z,470.90
2018-07-07T04:41:18.528Z,418.30
2018-07-07T04:42:18.577Z,431.20
2018-07-07T04:43:18.802Z,433.00
2018-07-07T04:44:18.645Z,454.90
2018-07-07T04:45:18.675Z,442.40
2018-07-07T04:46:18.751Z,448.80
2018-07-07T04:47:18.781Z,450.20
2018-07-07T04:48:18.837Z,381.40
2018-07-07T04:49:18.878Z,368.50
2018-07-07T04:50:18.888Z,381.70
2018-07-07T04:51:18.956Z,384.00
2018-07-07T04:52:18.991Z,454.50
2018-07-07T04:53:19.037Z,386.20
2018-07-07T04:54:19.088Z,354.10
2018-07-07T04:55:19.376Z,372.20
2018-07-07T04:56:19.169Z,424.00
2018-07-07T04:57:19.201Z,392.80
2018-07-07T04:58:19.258Z,394.90
2018-07-07T04:59:19.261Z,400.40
2018-07-07T05:00:19.323Z,412.00
2018-07-07T05:01:19.387Z,440.70
2018-07-07T05:02:19.436Z,466.70
2018-07-07T05:03:19.479Z,454.00
2018-07-07T05:04:19.511Z,397.40
2018-07-07T05:05:19.560Z,433.00
2018-07-07T05:06:19.566Z,432.90
2018-07-07T05:07:19.634Z,473.80
2018-07-07T05:08:19.687Z,447.00
2018-07-07T05:09:19.697Z,406.80
2018-07-07T05:10:19.739Z,464.30
2018-07-07T05:11:19.995Z,461.50
2018-07-07T05:12:19.842Z,475.20
2018-07-07T05:13:19.870Z,518.50
2018-07-07T05:14:19.953Z,435.50
2018-07-07T05:15:19.965Z,372.20
2018-07-07T05:16:20.032Z,399.10
2018-07-07T05:17:20.119Z,387.10
2018-07-07T05:18:20.113Z,390.00
2018-07-07T05:19:20.144Z,351.00
2018-07-07T05:20:20.201Z,347.50
2018-07-07T05:21:20.235Z,348.10
2018-07-07T05:22:20.264Z,348.00
2018-07-07T05:23:20.529Z,370.10
2018-07-07T05:24:20.361Z,361.10
2018-07-07T05:25:20.423Z,302.50
2018-07-07T05:26:20.434Z,371.50
2018-07-07T05:27:20.472Z,470.60
2018-07-07T05:28:20.546Z,399.10
2018-07-07T05:29:20.567Z,380.50
2018-07-07T05:30:20.609Z,441.70
2018-07-07T05:31:20.658Z,431.70
2018-07-07T05:32:20.718Z,393.50
2018-07-07T05:33:20.743Z,442.60
2018-07-07T05:34:20.967Z,499.20
2018-07-07T05:35:20.833Z,466.60
2018-07-07T05:36:20.877Z,481.60
2018-07-07T05:37:20.991Z,484.00
2018-07-07T05:38:20.984Z,456.00
2018-07-07T05:39:20.997Z,486.20
2018-07-07T05:40:21.035Z,421.80
2018-07-07T05:41:21.089Z,395.20
2018-07-07T05:42:21.122Z,448.40
2018-07-07T05:43:21.185Z,471.80
2018-07-07T05:44:21.227Z,501.30
2018-07-07T05:45:21.458Z,489.00
2018-07-07T05:46:21.288Z,492.50
2018-07-07T05:47:21.348Z,510.90
2018-07-07T05:48:21.392Z,512.50
2018-07-07T05:49:21.417Z,431.70
2018-07-07T05:50:21.468Z,456.90
2018-07-07T05:51:21.506Z,460.10
2018-07-07T05:52:21.541Z,441.10
2018-07-07T05:53:21.608Z,437.10
2018-07-07T05:54:21.673Z,437.30
2018-07-07T05:55:21.711Z,435.80
2018-07-07T05:56:21.737Z,377.80
2018-07-07T05:57:21.831Z,411.70
2018-07-07T05:58:21.802Z,459.30
2018-07-07T05:59:21.872Z,371.80
2018-07-07T06:00:21.904Z,374.20
2018-07-07T06:01:21.952Z,404.00
2018-07-07T06:02:21.999Z,409.70
2018-07-07T06:03:22.026Z,451.40
2018-07-07T06:04:22.091Z,411.40
2018-07-07T06:05:22.120Z,409.10
2018-07-07T06:06:22.166Z,356.40
2018-07-07T06:07:22.209Z,399.70
2018-07-07T06:08:22.242Z,351.00
2018-07-07T06:09:22.281Z,393.60
2018-07-07T06:10:22.321Z,425.40
2018-07-07T06:11:22.597Z,411.80
2018-07-07T06:12:22.395Z,455.90
2018-07-07T06:13:22.442Z,455.10
2018-07-07T06:14:22.568Z,459.30
2018-07-07T06:15:22.556Z,452.30
2018-07-07T06:16:22.575Z,412.00
2018-07-07T06:17:22.592Z,397.00
2018-07-07T06:18:22.729Z,404.40
2018-07-07T06:19:22.699Z,427.10
2018-07-07T06:20:22.746Z,461.90
2018-07-07T06:21:22.823Z,424.80
2018-07-07T06:22:22.854Z,437.40
2018-07-07T06:23:22.861Z,484.30
2018-07-07T06:24:22.938Z,453.10
2018-07-07T06:25:22.957Z,468.80
2018-07-07T06:26:23.040Z,454.60
2018-07-07T06:27:23.043Z,472.00
2018-07-07T06:28:23.092Z,480.40
2018-07-07T06:29:23.120Z,450.10
2018-07-07T06:30:23.166Z,446.80
2018-07-07T06:31:23.241Z,473.70
2018-07-07T06:32:23.251Z,451.20
2018-07-07T06:33:23.291Z,453.30
2018-07-07T06:34:23.325Z,462.80
2018-07-07T06:35:23.389Z,424.50
2018-07-07T06:36:23.460Z,436.00
2018-07-07T06:37:23.514Z,431.20
2018-07-07T06:38:23.516Z,448.20
2018-07-07T06:39:23.563Z,464.20
2018-07-07T06:40:23.598Z,439.10
2018-07-07T06:41:23.663Z,450.70
2018-07-07T06:42:23.689Z,455.60
2018-07-07T06:43:23.719Z,460.50
2018-07-07T06:44:23.771Z,460.70
2018-07-07T06:45:24.014Z,438.20
2018-07-07T06:46:23.838Z,472.00
2018-07-07T06:47:23.878Z,455.60
2018-07-07T06:48:23.921Z,487.50
2018-07-07T06:49:23.991Z,478.00
2018-07-07T06:50:24.016Z,477.10
2018-07-07T06:51:24.065Z,505.60
2018-07-07T06:52:24.108Z,499.00
2018-07-07T06:53:24.144Z,498.90
2018-07-07T06:54:24.208Z,501.50
2018-07-07T06:55:24.253Z,519.60
2018-07-07T06:56:24.483Z,519.80
2018-07-07T06:57:24.311Z,531.20
2018-07-07T06:58:24.341Z,503.70
2018-07-07T06:59:24.382Z,513.90
2018-07-07T07:00:24.417Z,518.60
2018-07-07T07:01:24.464Z,512.40
2018-07-07T07:02:24.537Z,516.50
2018-07-07T07:03:24.551Z,510.30
2018-07-07T07:04:24.623Z,510.60
2018-07-07T07:05:24.665Z,526.00
2018-07-07T07:06:24.702Z,513.10
2018-07-07T07:07:24.941Z,531.60
2018-07-07T07:08:24.783Z,526.40
2018-07-07T07:09:24.831Z,517.60
2018-07-07T07:10:24.856Z,496.80
2018-07-07T07:11:24.894Z,492.80
2018-07-07T07:12:24.946Z,507.00
2018-07-07T07:13:24.991Z,505.30
2018-07-07T07:14:25.040Z,471.20
2018-07-07T07:15:25.089Z,483.70
2018-07-07T07:16:25.125Z,473.90
2018-07-07T07:17:25.142Z,490.10
2018-07-07T07:18:25.204Z,482.70
2018-07-07T07:19:25.254Z,462.20
2018-07-07T07:20:25.288Z,458.80
2018-07-07T07:21:25.326Z,466.40
2018-07-07T07:22:25.378Z,451.30
2018-07-07T07:23:25.596Z,433.10
2018-07-07T07:24:25.494Z,490.30
2018-07-07T07:25:25.495Z,486.50
2018-07-07T07:26:25.581Z,504.80
2018-07-07T07:27:25.573Z,515.50
2018-07-07T07:28:25.627Z,503.30
2018-07-07T07:29:25.685Z,508.90
2018-07-07T07:30:25.696Z,536.80
2018-07-07T07:31:25.726Z,526.20
2018-07-07T07:32:25.799Z,525.10
2018-07-07T07:33:25.849Z,506.60
2018-07-07T07:34:25.916Z,540.50
2018-07-07T07:35:25.930Z,506.50
2018-07-07T07:36:26.199Z,537.50
2018-07-07T07:37:26.057Z,525.20
2018-07-07T07:38:26.053Z,515.10
2018-07-07T07:39:26.105Z,510.90
2018-07-07T07:40:26.111Z,522.80
2018-07-07T07:41:26.174Z,499.50
2018-07-07T07:42:26.219Z,510.10
2018-07-07T07:43:26.262Z,488.70
2018-07-07T07:44:26.305Z,500.90
2018-07-07T07:45:26.361Z,491.20
2018-07-07T07:46:26.388Z,488.00
2018-07-07T07:47:26.473Z,488.60
2018-07-07T07:48:26.671Z,503.00
2018-07-07T07:49:26.527Z,498.40
2018-07-07T07:50:26.557Z,499.70
2018-07-07T07:51:26.613Z,516.20
2018-07-07T07:52:26.646Z,534.50
2018-07-07T07:53:26.688Z,509.00
2018-07-07T07:54:26.735Z,489.90
2018-07-07T07:55:26.765Z,490.30
2018-07-07T07:56:26.788Z,499.00
2018-07-07T07:57:26.851Z,505.50
2018-07-07T07:58:26.913Z,499.70
2018-07-07T07:59:27.135Z,505.30
2018-07-07T08:00:26.972Z,516.00
2018-07-07T08:01:27.042Z,513.10
2018-07-07T08:02:27.062Z,507.90
2018-07-07T08:03:27.094Z,520.60
2018-07-07T08:04:27.133Z,515.60
2018-07-07T08:05:27.199Z,512.10
2018-07-07T08:06:27.216Z,528.30
2018-07-07T08:07:27.289Z,510.10
2018-07-07T08:08:27.302Z,507.60
2018-07-07T08:09:27.364Z,521.20
2018-07-07T08:10:27.377Z,524.80
2018-07-07T08:11:27.415Z,509.30
2018-07-07T08:12:27.520Z,523.80
2018-07-07T08:13:27.529Z,504.70
2018-07-07T08:14:27.584Z,518.50
2018-07-07T08:15:27.597Z,519.80
2018-07-07T08:16:27.641Z,493.40
2018-07-07T08:17:27.692Z,508.40
2018-07-07T08:18:27.727Z,509.60
2018-07-07T08:19:27.774Z,529.40
2018-07-07T08:20:27.835Z,513.90
2018-07-07T08:21:27.864Z,535.10
2018-07-07T08:22:27.980Z,495.20
2018-07-07T08:23:27.962Z,497.60
2018-07-07T08:24:27.980Z,520.70
2018-07-07T08:25:28.076Z,509.60
2018-07-07T08:26:28.093Z,523.40
2018-07-07T08:27:28.347Z,522.30
2018-07-07T08:28:28.203Z,531.40
2018-07-07T08:29:28.203Z,513.70
2018-07-07T08:30:28.235Z,509.70
2018-07-07T08:31:28.268Z,518.80
2018-07-07T08:32:28.299Z,524.30
2018-07-07T08:33:28.360Z,508.50
2018-07-07T08:34:28.490Z,496.10
2018-07-07T08:35:28.449Z,491.90
2018-07-07T08:36:28.523Z,504.20
2018-07-07T08:37:28.529Z,514.30
2018-07-07T08:38:28.564Z,504.10
2018-07-07T08:39:28.612Z,509.50
2018-07-07T08:40:28.694Z,506.50
2018-07-07T08:41:28.698Z,498.50
2018-07-07T08:42:28.720Z,496.60
2018-07-07T08:43:28.961Z,475.40
2018-07-07T08:44:28.837Z,513.70
2018-07-07T08:45:28.878Z,485.90
2018-07-07T08:46:28.899Z,493.20
2018-07-07T08:47:28.946Z,483.80
2018-07-07T08:48:28.982Z,494.50
2018-07-07T08:49:29.039Z,508.80
2018-07-07T08:50:29.052Z,483.50
2018-07-07T08:51:29.107Z,497.10
2018-07-07T08:52:29.148Z,487.50
2018-07-07T08:53:29.189Z,500.10
2018-07-07T08:54:29.240Z,499.30
2018-07-07T08:55:29.484Z,492.40
2018-07-07T08:56:29.327Z,501.60
2018-07-07T08:57:29.345Z,481.80
2018-07-07T08:58:29.415Z,497.00
2018-07-07T08:59:29.434Z,490.00
2018-07-07T09:00:29.474Z,496.00
2018-07-07T09:01:29.525Z,483.00
2018-07-07T09:02:29.560Z,491.70
2018-07-07T09:03:29.604Z,487.50
2018-07-07T09:04:29.647Z,487.30
2018-07-07T09:05:29.669Z,503.10
2018-07-07T09:06:29.739Z,476.40
2018-07-07T09:07:29.966Z,493.90
2018-07-07T09:08:29.849Z,487.90
2018-07-07T09:09:29.853Z,479.70
2018-07-07T09:10:29.878Z,498.50
2018-07-07T09:11:29.929Z,500.90
2018-07-07T09:12:29.975Z,481.80
2018-07-07T09:13:30.061Z,490.70
2018-07-07T09:14:30.039Z,498.80
2018-07-07T09:15:30.101Z,495.60
2018-07-07T09:16:30.138Z,506.60
2018-07-07T09:17:30.203Z,497.20
2018-07-07T09:18:30.231Z,474.00
2018-07-07T09:19:30.479Z,477.70
2018-07-07T09:20:30.325Z,501.20
2018-07-07T09:21:30.363Z,505.10
2018-07-07T09:22:30.370Z,486.40
2018-07-07T09:23:30.451Z,492.70
2018-07-07T09:24:30.504Z,493.50
2018-07-07T09:25:30.526Z,496.30
2018-07-07T09:26:30.597Z,484.80
2018-07-07T09:27:30.586Z,490.30
2018-07-07T09:28:30.647Z,481.00
2018-07-07T09:29:30.694Z,482.10
2018-07-07T09:30:30.765Z,491.90
2018-07-07T09:31:30.759Z,489.60
2018-07-07T09:32:30.867Z,464.20
2018-07-07T09:33:30.870Z,470.80
2018-07-07T09:34:30.908Z,462.10
2018-07-07T09:35:31.132Z,446.20
2018-07-07T09:36:30.981Z,453.20
2018-07-07T09:37:31.034Z,487.20
2018-07-07T09:38:31.085Z,461.00
2018-07-07T09:39:31.116Z,451.00
2018-07-07T09:40:31.161Z,439.80
2018-07-07T09:41:31.205Z,419.70
2018-07-07T09:42:31.237Z,409.40
2018-07-07T09:43:31.266Z,421.70
2018-07-07T09:44:31.348Z,421.90
2018-07-07T09:45:31.356Z,427.10
2018-07-07T09:46:31.614Z,414.10
2018-07-07T09:47:31.431Z,433.40
2018-07-07T09:48:31.468Z,392.90
2018-07-07T09:49:31.523Z,411.30
2018-07-07T09:50:31.539Z,437.40
2018-07-07T09:51:31.593Z,432.70
2018-07-07T09:52:31.660Z,449.00
2018-07-07T09:53:31.682Z,435.30
2018-07-07T09:54:31.734Z,397.70
2018-07-07T09:55:31.756Z,414.20
2018-07-07T09:56:31.849Z,426.80
2018-07-07T09:57:32.064Z,413.80
2018-07-07T09:58:31.905Z,417.30
2018-07-07T09:59:31.964Z,385.40
2018-07-07T10:00:31.991Z,398.50
2018-07-07T10:01:32.023Z,397.20
2018-07-07T10:02:32.057Z,382.40
2018-07-07T10:03:32.107Z,385.70
2018-07-07T10:04:32.194Z,405.80
2018-07-07T10:05:32.199Z,405.80
2018-07-07T10:06:32.283Z,396.30
2018-07-07T10:07:32.317Z,395.40
2018-07-07T10:08:32.321Z,395.80
2018-07-07T10:09:32.554Z,388.80
2018-07-07T10:10:32.410Z,391.40
2018-07-07T10:11:32.412Z,385.80
2018-07-07T10:12:32.494Z,361.70
2018-07-07T10:13:32.596Z,360.70
2018-07-07T10:14:32.556Z,355.10
2018-07-07T10:15:32.647Z,361.40
2018-07-07T10:16:32.684Z,371.50
2018-07-07T10:17:32.696Z,364.30
2018-07-07T10:18:32.721Z,335.80
2018-07-07T10:19:32.793Z,316.20
2018-07-07T10:20:32.822Z,297.30
2018-07-07T10:21:33.050Z,289.80
2018-07-07T10:22:32.950Z,265.80
2018-07-07T10:23:32.942Z,276.90
2018-07-07T10:24:32.995Z,252.40
2018-07-07T10:25:33.038Z,268.70
2018-07-07T10:26:33.103Z,252.20
2018-07-07T10:27:33.103Z,240.00
2018-07-07T10:28:33.136Z,213.60
2018-07-07T10:29:33.209Z,212.70
2018-07-07T10:30:33.245Z,213.60
2018-07-07T10:31:33.297Z,206.20
2018-07-07T10:32:33.333Z,191.00
2018-07-07T10:33:33.384Z,155.30
2018-07-07T10:34:33.420Z,153.40
2018-07-07T10:35:33.455Z,152.40
2018-07-07T10:36:33.509Z,157.50
2018-07-07T10:37:33.641Z,154.10
2018-07-07T10:38:33.565Z,141.20
2018-07-07T10:39:33.921Z,141.00
2018-07-07T10:40:33.656Z,154.90
2018-07-07T10:41:33.708Z,150.80
2018-07-07T10:42:33.804Z,145.90
2018-07-07T10:43:33.782Z,146.30
2018-07-07T10:44:33.844Z,123.90
2018-07-07T10:45:34.027Z,97.80
2018-07-07T10:46:33.920Z,106.10
2018-07-07T10:47:33.976Z,119.10
2018-07-07T10:48:33.988Z,151.00
2018-07-07T10:49:34.065Z,203.10
2018-07-07T10:50:34.100Z,194.40
2018-07-07T10:51:34.115Z,195.00
2018-07-07T10:52:34.192Z,189.90
2018-07-07T10:53:34.222Z,144.60
2018-07-07T10:54:34.464Z,149.70
2018-07-07T10:55:34.334Z,129.20
2018-07-07T10:56:34.346Z,106.20
2018-07-07T10:57:34.415Z,101.10
2018-07-07T10:58:34.471Z,120.80
2018-07-07T10:59:34.524Z,137.30
2018-07-07T11:00:34.536Z,140.40
2018-07-07T11:01:34.600Z,148.50
2018-07-07T11:02:34.652Z,145.10
2018-07-07T11:03:34.707Z,139.80
2018-07-07T11:04:34.738Z,138.60
2018-07-07T11:05:34.767Z,141.30
2018-07-07T11:06:34.822Z,128.70
2018-07-07T11:07:34.877Z,120.80
2018-07-07T11:08:34.921Z,108.50
2018-07-07T11:09:34.993Z,113.10
2018-07-07T11:10:35.002Z,84.30
2018-07-07T11:11:35.109Z,76.70
2018-07-07T11:12:35.093Z,69.60
2018-07-07T11:13:35.148Z,68.50
2018-07-07T11:14:35.212Z,91.30
2018-07-07T11:15:35.261Z,184.40
2018-07-07T11:16:35.298Z,246.00
2018-07-07T11:17:35.392Z,254.70
2018-07-07T11:18:35.400Z,150.80
2018-07-07T11:19:35.491Z,148.50
2018-07-07T11:20:35.490Z,142.90
2018-07-07T11:21:35.555Z,126.80
2018-07-07T11:22:35.820Z,114.60
2018-07-07T11:23:35.633Z,106.50
2018-07-07T11:24:35.737Z,101.60
2018-07-07T11:25:35.768Z,105.00
2018-07-07T11:26:35.861Z,95.50
2018-07-07T11:27:35.837Z,101.00
2018-07-07T11:28:35.882Z,90.00
2018-07-07T11:29:35.942Z,88.80
2018-07-07T11:30:36.019Z,83.90
2018-07-07T11:31:36.114Z,82.50
2018-07-07T11:32:36.125Z,84.50
2018-07-07T11:33:36.168Z,86.30
2018-07-07T11:34:36.205Z,88.30
2018-07-07T11:35:36.247Z,85.80
2018-07-07T11:36:36.447Z,80.00
2018-07-07T11:37:36.345Z,88.50
2018-07-07T11:38:36.453Z,89.90
2018-07-07T11:39:36.441Z,90.90
2018-07-07T11:40:36.507Z,91.20
2018-07-07T11:41:36.566Z,93.40
2018-07-07T11:42:36.603Z,96.40
2018-07-07T11:43:36.670Z,99.70
2018-07-07T11:44:36.908Z,91.00
2018-07-07T11:45:36.776Z,87.10
2018-07-07T11:46:36.817Z,80.50
2018-07-07T11:47:36.851Z,90.00
2018-07-07T11:48:36.943Z,101.80
2018-07-07T11:49:36.957Z,100.50
2018-07-07T11:50:37.089Z,100.00
2018-07-07T11:51:37.048Z,89.10
2018-07-07T11:52:37.105Z,98.60
2018-07-07T11:53:37.201Z,99.10
2018-07-07T11:54:37.191Z,100.10
2018-07-07T11:55:37.475Z,107.20
2018-07-07T11:56:37.303Z,103.20
2018-07-07T11:57:37.356Z,107.30
2018-07-07T11:58:37.418Z,100.40
2018-07-07T11:59:37.491Z,92.50
2018-07-07T12:00:37.554Z,70.70
2018-07-07T12:01:37.566Z,86.20
2018-07-07T12:02:37.625Z,88.90
2018-07-07T12:03:37.723Z,100.20
2018-07-07T12:04:37.792Z,96.80
2018-07-07T12:05:37.775Z,93.40
2018-07-07T12:06:37.841Z,98.90
2018-07-07T12:07:38.081Z,100.60
2018-07-07T12:08:37.932Z,101.40
2018-07-07T12:09:38.189Z,92.20
2018-07-07T12:10:38.052Z,87.30
2018-07-07T12:11:38.178Z,88.80
2018-07-07T12:12:38.184Z,90.20
2018-07-07T12:13:38.194Z,88.20
2018-07-07T12:14:38.260Z,90.20
2018-07-07T12:15:38.281Z,83.00
2018-07-07T12:16:38.337Z,84.10
2018-07-07T12:17:38.407Z,88.90
2018-07-07T12:18:38.462Z,86.80
2018-07-07T12:19:38.714Z,87.20
2018-07-07T12:20:38.585Z,88.70
2018-07-07T12:21:38.635Z,88.80
2018-07-07T12:22:38.641Z,83.40
2018-07-07T12:23:38.723Z,86.70
2018-07-07T12:24:38.760Z,92.30
2018-07-07T12:25:38.832Z,91.80
2018-07-07T12:26:39.065Z,89.10
2018-07-07T12:27:38.963Z,91.70
2018-07-07T12:28:38.967Z,91.00
2018-07-07T12:29:39.076Z,93.90
2018-07-07T12:30:39.096Z,93.60